Portada
METAR-TAF:

METAR-TAF

Aeropuertos :

Baréin, Bahréin

Aeropuerto Internacional de Baréin

latitud: 26-16N, longitud: 050-39E, altitud: 2 m

Observación

El informe se hizo hace 39 minutos, a las 16:00 UTC
Viento 12 kt del noroeste
Temperatura 32°C
Humedad 56%
Presión 1003 hPa
Visibilidad 10 km o más
sin nubes por debajo de 1500 m y sin presencia de cumulonimbus.

METAR: OBBI 281600Z 32012KT CAVOK 32/22 Q1003 NOSIG

Hora: 19:39 (16:39 UTC)

Pronóstico

El informe se hizo hace 5 horas y 39 minutos, a las 11:00 UTC
Pronóstico válido del 28 a las 12 UTC al 29 a las 18 UTC
Viento 17 kt del norte-noroeste con ráfagas de 27 kt
Visibilidad 10 km o más
sin nubes por debajo de 1500 m y sin presencia de cumulonimbus.

TAF: OBBI 281100Z 2812/2918 34017G27KT CAVOK

Observaciones y pronósticos meteorológicos de más de 4000 aeropuertos (mensajes METAR y TAF).

Los puntos amarillos y rojos representan las estaciones disponibles.

Ponga el ratón en el punto deseado para ver el nombre de la estación.

Haga clic para ver las observaciones y los pronósticos meteorológicos.

Para cambiar el mapa : haga clic en los botones verdes con una cruz de color negro para hacer un zoom, en el botón verde con un guión para alejar o en las flechas verdes para mapas adyacentes.


METAR-TAF: